Time;durP1;ratioP1;P1;durP2;ratioP2;P2;SDS_P1;SDS_P2;PMS_P1;PMS_P2;Temp;Humidity;BMP_temperature;BMP_pressure;BME280_temperature;BME280_humidity;BME280_pressure;Samples;Min_cycle;Max_cycle;Signal;HPM_P1;HPM_P2
2022/04/30 00:02:06;;;;;;;13.77;6.60;;;12.60;59.90;;;;;;5041586;28;20212;-93
2022/04/30 00:04:36;;;;;;;11.37;5.93;;;12.60;60.00;;;;;;5043445;28;20204;-95
2022/04/30 00:07:06;;;;;;;9.27;5.10;;;12.60;60.10;;;;;;5034622;28;20200;-94
2022/04/30 00:09:36;;;;;;;12.37;5.73;;;12.50;60.10;;;;;;5035500;28;20572;-93
2022/04/30 00:12:04;;;;;;;15.03;6.43;;;12.50;60.00;;;;;;5035285;28;20247;-95
2022/04/30 00:14:37;;;;;;;14.50;5.47;;;12.50;60.00;;;;;;5034267;28;20246;-94
2022/04/30 00:17:07;;;;;;;11.30;5.23;;;12.50;60.50;;;;;;5038796;28;20201;-95
2022/04/30 00:19:35;;;;;;;15.00;5.67;;;12.50;60.50;;;;;;5041574;28;20259;-94
2022/04/30 00:22:04;;;;;;;10.63;4.90;;;12.40;60.40;;;;;;5050114;28;20204;-95
2022/04/30 00:24:33;;;;;;;13.50;5.40;;;12.40;60.40;;;;;;5056297;28;20208;-95
2022/04/30 00:27:01;;;;;;;14.73;6.33;;;12.40;60.80;;;;;;5044557;28;20205;-95
2022/04/30 00:29:32;;;;;;;11.30;5.27;;;12.30;60.80;;;;;;5046931;28;20201;-95
2022/04/30 00:32:04;;;;;;;7.67;4.27;;;12.30;60.80;;;;;;5052801;28;20207;-94
2022/04/30 00:34:32;;;;;;;12.33;5.17;;;12.20;60.90;;;;;;5054630;28;20200;-96
2022/04/30 00:37:02;;;;;;;8.33;4.40;;;12.10;60.80;;;;;;5044596;28;20212;-95
2022/04/30 00:39:37;;;;;;;8.50;4.50;;;12.20;61.00;;;;;;5047052;28;20231;-96
2022/04/30 00:42:12;;;;;;;8.90;4.37;;;12.10;61.00;;;;;;5058060;28;20207;-96
2022/04/30 00:44:39;;;;;;;17.23;5.70;;;12.10;61.10;;;;;;5050850;28;20185;-96
2022/04/30 00:47:08;;;;;;;10.13;4.47;;;12.10;61.00;;;;;;5051415;28;20227;-95
2022/04/30 00:49:37;;;;;;;11.03;5.50;;;12.00;61.10;;;;;;5052360;28;20216;-96
2022/04/30 00:52:10;;;;;;;15.87;4.33;;;12.00;61.00;;;;;;5048859;28;20206;-95
2022/04/30 00:54:41;;;;;;;11.03;4.60;;;12.00;61.20;;;;;;5054717;28;20212;-95
2022/04/30 00:57:13;;;;;;;8.97;4.83;;;12.00;61.30;;;;;;5043688;28;20627;-95
2022/04/30 00:59:42;;;;;;;14.17;5.10;;;11.90;61.20;;;;;;5035133;28;20236;-95
2022/04/30 01:02:11;;;;;;;14.00;5.30;;;11.90;61.20;;;;;;5035663;28;20279;-92
2022/04/30 01:04:47;;;;;;;11.23;4.93;;;11.90;61.40;;;;;;5043034;28;20238;-96
2022/04/30 01:07:16;;;;;;;12.53;4.40;;;11.90;61.70;;;;;;5056576;28;20272;-95
2022/04/30 01:09:47;;;;;;;10.90;5.03;;;11.90;61.60;;;;;;5044481;28;20235;-95
2022/04/30 01:12:16;;;;;;;14.17;5.63;;;11.90;61.70;;;;;;5051240;28;20204;-95
2022/04/30 01:14:48;;;;;;;15.70;5.47;;;11.80;61.80;;;;;;5033613;28;20681;-92
2022/04/30 01:17:16;;;;;;;11.70;5.43;;;11.80;61.90;;;;;;5033883;28;20196;-96
2022/04/30 01:19:47;;;;;;;12.77;4.87;;;11.80;61.80;;;;;;5052496;28;20225;-95
2022/04/30 01:22:57;;;;;;;15.80;4.90;;;11.80;62.20;;;;;;5045743;28;20215;-95
2022/04/30 01:25:26;;;;;;;12.80;5.47;;;11.80;62.20;;;;;;4973608;28;20298;-96
2022/04/30 01:27:54;;;;;;;14.23;5.43;;;11.70;62.00;;;;;;5030075;28;20653;-95
2022/04/30 01:30:25;;;;;;;14.10;5.73;;;11.70;62.00;;;;;;5034739;28;20199;-95
2022/04/30 01:38:27;;;;;;;14.63;5.83;;;11.70;62.50;;;;;;5037316;28;20196;-95
2022/04/30 01:40:57;;;;;;;14.83;6.23;;;11.60;62.20;;;;;;5036314;28;20217;-96
2022/04/30 01:43:26;;;;;;;13.63;5.60;;;11.60;62.40;;;;;;5040465;28;20201;-96
2022/04/30 01:45:58;;;;;;;14.93;6.10;;;11.60;62.20;;;;;;5037734;28;20251;-95
2022/04/30 01:48:29;;;;;;;12.73;5.43;;;11.60;62.40;;;;;;5039127;28;20212;-95
2022/04/30 01:50:57;;;;;;;10.53;4.50;;;11.60;62.40;;;;;;5038590;28;20663;-96
2022/04/30 01:53:24;;;;;;;9.50;4.87;;;11.60;62.40;;;;;;5041632;28;20209;-95
2022/04/30 01:55:57;;;;;;;10.90;4.97;;;11.60;63.10;;;;;;5038816;28;20212;-96
2022/04/30 01:58:26;;;;;;;12.23;5.37;;;11.60;62.40;;;;;;5038277;28;20555;-95
2022/04/30 02:01:00;;;;;;;11.43;5.30;;;11.60;62.70;;;;;;5038623;28;20228;-96
2022/04/30 02:03:35;;;;;;;13.63;6.43;;;11.60;62.80;;;;;;5038946;28;20200;-96
2022/04/30 02:09:10;;;;;;;15.33;5.17;;;11.50;62.80;;;;;;5000761;28;20578;-94
2022/04/30 02:11:40;;;;;;;16.30;7.30;;;11.50;62.60;;;;;;5031282;28;20200;-94
2022/04/30 02:14:21;;;;;;;11.03;5.30;;;11.50;63.00;;;;;;5037311;28;20617;-96
2022/04/30 02:16:50;;;;;;;15.60;6.40;;;11.50;63.20;;;;;;5037009;28;20210;-95
2022/04/30 02:19:17;;;;;;;8.53;4.80;;;11.50;62.80;;;;;;5038667;28;20212;-96
2022/04/30 02:21:48;;;;;;;13.07;5.37;;;11.40;62.80;;;;;;5044265;28;20232;-96
2022/04/30 02:24:17;;;;;;;9.73;4.67;;;11.40;63.00;;;;;;5041164;28;20735;-96
2022/04/30 02:30:17;;;;;;;12.40;5.70;;;11.40;63.50;;;;;;5011998;28;20251;-96
2022/04/30 02:32:52;;;;;;;11.43;5.47;;;11.40;63.30;;;;;;5036997;28;20203;-95
2022/04/30 02:35:21;;;;;;;17.77;6.63;;;11.40;63.40;;;;;;5037641;28;20200;-96
2022/04/30 02:38:00;;;;;;;16.80;6.43;;;11.40;63.30;;;;;;5043569;28;20266;-96
2022/04/30 02:40:35;;;;;;;12.83;6.17;;;11.40;63.70;;;;;;5039915;28;20567;-96
2022/04/30 02:43:07;;;;;;;12.17;5.20;;;11.30;63.20;;;;;;5039770;28;20205;-95
2022/04/30 02:45:50;;;;;;;10.17;5.23;;;11.30;63.30;;;;;;5039165;28;20252;-94
2022/04/30 02:48:23;;;;;;;13.63;6.43;;;11.30;63.60;;;;;;5052813;28;20552;-96
2022/04/30 02:50:55;;;;;;;10.73;5.43;;;11.30;63.60;;;;;;5038448;28;20200;-96
2022/04/30 02:53:24;;;;;;;8.27;4.77;;;11.30;63.50;;;;;;5043667;28;20219;-96
2022/04/30 02:55:54;;;;;;;12.33;5.87;;;11.30;63.50;;;;;;5049757;28;20250;-95
2022/04/30 03:01:28;;;;;;;13.63;6.20;;;11.20;63.30;;;;;;5042354;28;20303;-96
2022/04/30 03:04:30;;;;;;;15.77;6.10;;;11.20;63.80;;;;;;5038117;28;20205;-96
2022/04/30 03:07:04;;;;;;;10.27;5.60;;;11.20;63.80;;;;;;5038509;28;20211;-96
2022/04/30 03:09:32;;;;;;;14.03;5.57;;;11.20;63.50;;;;;;5038389;28;20228;-96
2022/04/30 03:12:37;;;;;;;13.47;6.00;;;11.20;63.40;;;;;;5036816;28;20212;-96
2022/04/30 03:15:16;;;;;;;17.77;6.40;;;11.20;63.80;;;;;;5019172;28;20215;-96
2022/04/30 03:23:37;;;;;;;11.90;5.50;;;11.10;63.50;;;;;;5037406;28;20208;-96
2022/04/30 03:26:08;;;;;;;7.40;4.87;;;11.10;63.90;;;;;;4984733;28;20554;-96
2022/04/30 03:28:54;;;;;;;10.00;6.20;;;11.10;63.70;;;;;;5035514;28;20304;-96
2022/04/30 03:31:39;;;;;;;11.03;6.30;;;11.10;63.70;;;;;;5039051;28;20203;-96
2022/04/30 03:34:09;;;;;;;17.97;6.90;;;11.00;63.80;;;;;;5034997;28;20219;-96
2022/04/30 03:36:38;;;;;;;12.33;6.17;;;11.10;63.70;;;;;;5035400;28;20262;-94
2022/04/30 03:39:12;;;;;;;13.07;5.93;;;11.00;63.80;;;;;;5035718;28;20201;-96
2022/04/30 03:44:23;;;;;;;10.23;5.30;;;11.00;63.60;;;;;;5105104;22;20293;-95
2022/04/30 03:46:50;;;;;;;11.27;5.80;;;11.00;63.70;;;;;;5014586;28;20540;-95
2022/04/30 03:49:26;;;;;;;8.73;5.47;;;11.00;63.80;;;;;;5015287;28;20212;-94
2022/04/30 03:51:56;;;;;;;10.20;5.20;;;11.00;64.20;;;;;;5014678;28;20233;-95
2022/04/30 03:54:30;;;;;;;10.20;5.63;;;10.90;64.00;;;;;;5014750;28;20206;-95
2022/04/30 03:57:09;;;;;;;;;;;;;;;;;;;;;
2022/04/30 03:59:40;;;;;;;10.97;5.80;;;10.90;63.80;;;;;;5022668;28;20205;-95
2022/04/30 04:02:10;;;;;;;11.03;6.30;;;10.90;63.60;;;;;;5016011;28;20236;-96
2022/04/30 04:04:41;;;;;;;12.80;5.40;;;10.80;63.40;;;;;;5014534;28;20202;-95
2022/04/30 04:07:08;;;;;;;11.93;6.40;;;10.90;63.50;;;;;;5000213;28;20206;-95
2022/04/30 04:10:14;;;;;;;11.83;6.23;;;10.80;63.30;;;;;;5009075;28;20706;-95
2022/04/30 04:12:43;;;;;;;9.23;5.57;;;10.80;63.30;;;;;;5003445;28;20246;-96
2022/04/30 04:17:58;;;;;;;12.27;5.83;;;10.80;62.50;;;;;;5011319;28;20289;-95
2022/04/30 04:20:29;;;;;;;12.00;5.67;;;10.80;62.60;;;;;;5015804;28;20322;-94
2022/04/30 04:22:56;;;;;;;13.93;7.00;;;10.80;63.00;;;;;;5023926;28;20213;-96
2022/04/30 04:29:13;;;;;;;10.07;5.63;;;10.80;63.40;;;;;;5052123;22;20235;-95
2022/04/30 04:31:43;;;;;;;10.63;5.53;;;10.80;63.40;;;;;;5034450;28;20213;-96
2022/04/30 04:34:14;;;;;;;10.57;6.10;;;10.70;63.20;;;;;;5036443;28;20650;-94
2022/04/30 04:36:45;;;;;;;10.00;5.30;;;10.80;64.10;;;;;;5036736;28;20205;-96
2022/04/30 04:39:16;;;;;;;12.43;6.30;;;10.70;63.00;;;;;;5051185;28;20273;-96
2022/04/30 04:41:44;;;;;;;10.07;5.37;;;10.70;62.90;;;;;;5053838;28;20232;-96
2022/04/30 04:44:21;;;;;;;9.43;5.87;;;10.70;63.30;;;;;;5045769;28;20196;-96
2022/04/30 04:46:50;;;;;;;11.40;6.20;;;10.60;62.90;;;;;;5053216;28;20675;-96
2022/04/30 04:49:44;;;;;;;12.60;6.80;;;10.60;63.20;;;;;;5051351;28;20204;-95
2022/04/30 04:52:19;;;;;;;11.53;6.00;;;10.60;63.50;;;;;;5034391;28;20270;-96
2022/04/30 04:57:38;;;;;;;21.30;8.87;;;10.60;63.20;;;;;;5037925;28;21029;-96
2022/04/30 05:00:34;;;;;;;12.33;6.03;;;10.60;63.20;;;;;;5051248;28;20203;-96
2022/04/30 05:03:02;;;;;;;12.13;6.37;;;10.60;63.40;;;;;;5051347;28;20210;-93
2022/04/30 05:05:33;;;;;;;12.60;6.27;;;10.60;63.70;;;;;;5054601;28;20530;-94
2022/04/30 05:11:09;;;;;;;11.67;6.43;;;10.50;64.00;;;;;;5045826;22;20241;-93
2022/04/30 05:13:37;;;;;;;10.93;6.23;;;10.60;64.30;;;;;;5014580;28;20201;-94
2022/04/30 05:16:07;;;;;;;11.83;6.53;;;10.60;64.40;;;;;;5014484;28;20271;-93
2022/04/30 05:18:37;;;;;;;10.93;5.90;;;10.60;64.60;;;;;;5013734;28;20213;-93
2022/04/30 05:21:06;;;;;;;14.83;7.20;;;10.60;65.20;;;;;;5017134;28;20627;-93
2022/04/30 05:23:34;;;;;;;12.83;6.30;;;10.60;65.50;;;;;;5015266;28;20198;-94
2022/04/30 05:26:02;;;;;;;11.70;5.80;;;10.60;65.60;;;;;;5012936;28;20213;-93
2022/04/30 05:28:30;;;;;;;13.63;7.13;;;10.60;65.90;;;;;;5013602;28;20193;-93
2022/04/30 05:30:59;;;;;;;15.63;6.67;;;10.60;66.10;;;;;;5013930;28;20244;-93
2022/04/30 05:33:29;;;;;;;14.13;6.47;;;10.70;66.40;;;;;;5016464;28;20206;-93
2022/04/30 05:35:58;;;;;;;13.73;6.83;;;10.70;66.30;;;;;;5017417;28;20224;-93
2022/04/30 05:38:25;;;;;;;13.23;6.50;;;10.70;66.50;;;;;;5012894;28;20257;-93
2022/04/30 05:40:52;;;;;;;14.13;7.37;;;10.80;66.40;;;;;;5012093;28;20287;-93
2022/04/30 05:43:19;;;;;;;14.70;7.10;;;10.80;66.50;;;;;;5012732;28;20201;-93
2022/04/30 05:45:54;;;;;;;12.30;7.53;;;10.90;66.70;;;;;;5012088;28;20210;-94
2022/04/30 05:48:21;;;;;;;12.87;6.87;;;11.00;67.30;;;;;;5017654;28;20263;-93
2022/04/30 05:50:51;;;;;;;9.97;6.33;;;11.00;66.60;;;;;;5017815;28;20237;-95
2022/04/30 05:53:18;;;;;;;12.77;7.10;;;11.10;66.90;;;;;;5018526;28;20240;-94
2022/04/30 05:59:07;;;;;;;12.60;6.27;;;11.20;67.50;;;;;;5018971;28;20539;-93
2022/04/30 06:01:36;;;;;;;13.60;7.47;;;11.30;66.90;;;;;;5026320;28;20257;-94
2022/04/30 06:04:03;;;;;;;14.83;7.67;;;11.30;66.90;;;;;;5009137;28;20201;-95
2022/04/30 06:06:31;;;;;;;11.57;6.10;;;11.40;66.90;;;;;;5019989;28;20228;-94
2022/04/30 06:09:00;;;;;;;13.80;7.57;;;11.50;66.80;;;;;;5018466;28;20233;-94
2022/04/30 06:11:42;;;;;;;10.80;5.97;;;11.50;66.80;;;;;;5003705;28;20617;-93
2022/04/30 06:18:00;;;;;;;14.80;7.17;;;11.60;66.70;;;;;;5002268;28;20312;-95
2022/04/30 06:23:49;;;;;;;12.23;6.77;;;11.80;66.40;;;;;;5006242;28;20225;-95
2022/04/30 06:26:24;;;;;;;10.70;5.87;;;11.80;66.00;;;;;;5021923;28;20303;-95
2022/04/30 06:28:55;;;;;;;11.87;6.37;;;11.90;66.10;;;;;;5014941;28;20198;-95
2022/04/30 06:31:24;;;;;;;15.67;7.10;;;11.90;65.90;;;;;;5016029;28;20205;-94
2022/04/30 06:33:53;;;;;;;15.23;7.47;;;12.00;66.00;;;;;;5017805;28;20190;-95
2022/04/30 06:36:22;;;;;;;12.73;6.60;;;12.00;66.10;;;;;;5019880;28;20648;-95
2022/04/30 06:38:54;;;;;;;15.27;7.17;;;12.10;65.80;;;;;;5019044;28;20646;-96
2022/04/30 06:41:26;;;;;;;10.90;5.83;;;12.10;65.80;;;;;;5021572;28;20236;-95
2022/04/30 06:43:55;;;;;;;11.67;6.50;;;12.10;65.70;;;;;;5018364;28;20324;-95
2022/04/30 06:46:31;;;;;;;10.70;6.27;;;12.20;65.70;;;;;;5022061;28;20224;-95
2022/04/30 06:49:07;;;;;;;10.27;6.10;;;12.20;65.90;;;;;;5021222;28;20260;-94
2022/04/30 06:51:36;;;;;;;11.70;5.40;;;12.20;65.70;;;;;;5003824;28;20231;-95
2022/04/30 06:57:11;;;;;;;14.17;7.23;;;12.30;66.00;;;;;;4996525;28;20215;-96
2022/04/30 06:59:42;;;;;;;10.53;6.47;;;12.30;65.70;;;;;;5003133;28;20278;-95
2022/04/30 07:02:22;;;;;;;9.93;6.27;;;12.40;65.80;;;;;;5003834;28;20318;-96
2022/04/30 07:04:51;;;;;;;10.60;5.33;;;12.40;65.70;;;;;;5001996;28;20207;-96
2022/04/30 07:07:22;;;;;;;8.97;5.57;;;12.50;65.60;;;;;;5001586;28;20202;-96
2022/04/30 07:09:52;;;;;;;15.47;7.77;;;12.50;65.40;;;;;;4998796;28;20239;-96
2022/04/30 07:12:36;;;;;;;11.30;6.37;;;12.50;65.20;;;;;;5000040;28;20711;-96
2022/04/30 07:15:03;;;;;;;15.47;7.40;;;12.60;65.30;;;;;;4995677;28;20229;-94
2022/04/30 07:17:58;;;;;;;15.07;6.83;;;12.70;64.90;;;;;;4997144;28;20748;-95
2022/04/30 07:20:41;;;;;;;13.60;6.73;;;12.70;64.70;;;;;;4982442;28;20545;-96
2022/04/30 07:23:14;;;;;;;11.53;6.37;;;12.70;64.50;;;;;;4984923;28;20223;-95
2022/04/30 07:26:16;;;;;;;11.73;6.93;;;12.80;64.40;;;;;;4991173;28;20321;-96
2022/04/30 07:28:43;;;;;;;14.83;7.40;;;12.80;64.50;;;;;;4939726;29;20209;-96
2022/04/30 07:31:33;;;;;;;17.90;7.17;;;12.80;64.40;;;;;;4979570;28;20205;-96
2022/04/30 07:34:09;;;;;;;10.30;5.50;;;12.80;63.90;;;;;;4987045;28;20181;-96
2022/04/30 07:36:41;;;;;;;19.33;7.37;;;13.00;64.80;;;;;;5005236;28;20205;-96
2022/04/30 07:39:16;;;;;;;10.80;6.30;;;13.00;64.70;;;;;;5012346;28;20230;-96
2022/04/30 07:42:05;;;;;;;10.37;6.17;;;13.00;64.80;;;;;;5004606;28;20262;-96
2022/04/30 07:44:50;;;;;;;11.70;5.47;;;13.00;64.70;;;;;;4991187;28;20269;-96
2022/04/30 07:47:19;;;;;;;6.20;4.37;;;13.10;64.80;;;;;;4997772;28;20200;-95
2022/04/30 07:49:48;;;;;;;7.73;5.00;;;13.10;64.60;;;;;;4999744;28;20577;-96
2022/04/30 07:52:16;;;;;;;12.60;6.77;;;13.20;64.70;;;;;;5000214;28;20604;-96
2022/04/30 07:54:49;;;;;;;11.20;5.97;;;13.20;64.50;;;;;;4989780;28;20240;-96
2022/04/30 07:57:35;;;;;;;10.80;5.60;;;13.20;64.40;;;;;;5001759;28;20211;-96
2022/04/30 08:00:12;;;;;;;11.00;5.50;;;13.30;64.40;;;;;;5004653;28;20288;-96
2022/04/30 08:02:42;;;;;;;10.80;5.13;;;13.30;64.40;;;;;;5011863;28;20232;-96
2022/04/30 08:05:10;;;;;;;7.43;4.73;;;13.30;64.30;;;;;;5005080;28;20306;-94
2022/04/30 08:07:37;;;;;;;12.40;6.20;;;13.40;64.30;;;;;;5001817;28;20216;-96
2022/04/30 08:10:11;;;;;;;8.40;4.87;;;13.40;63.80;;;;;;4996015;28;20209;-96
2022/04/30 08:12:42;;;;;;;9.07;4.50;;;13.40;63.10;;;;;;4998940;28;20713;-96
2022/04/30 08:18:50;;;;;;;11.30;4.50;;;13.40;62.80;;;;;;4953631;28;20302;-96
2022/04/30 08:21:19;;;;;;;9.33;4.10;;;13.50;62.80;;;;;;4994951;28;20658;-96
2022/04/30 08:23:55;;;;;;;9.87;4.93;;;13.50;62.20;;;;;;4996848;28;20225;-96
2022/04/30 08:26:22;;;;;;;11.93;4.40;;;13.50;62.20;;;;;;4995474;28;20211;-96
2022/04/30 08:29:01;;;;;;;12.00;5.70;;;13.50;62.00;;;;;;4994151;28;20202;-94
2022/04/30 08:31:31;;;;;;;10.60;5.23;;;13.50;61.90;;;;;;4983106;28;20236;-96
2022/04/30 08:34:29;;;;;;;7.00;3.63;;;13.60;62.00;;;;;;4986046;28;20203;-96
2022/04/30 08:36:55;;;;;;;14.73;6.67;;;13.60;62.00;;;;;;4987603;28;20203;-91
2022/04/30 08:39:23;;;;;;;11.60;4.23;;;13.60;62.10;;;;;;4994845;28;20247;-94
2022/04/30 08:41:56;;;;;;;12.10;4.97;;;13.60;62.20;;;;;;4999481;28;20262;-96
2022/04/30 08:45:21;;;;;;;9.80;4.90;;;13.70;62.30;;;;;;4999771;28;20215;-96
2022/04/30 08:47:53;;;;;;;8.83;4.93;;;13.70;62.40;;;;;;4983344;28;20236;-95
2022/04/30 08:50:23;;;;;;;9.77;4.67;;;13.70;62.20;;;;;;4999214;28;20209;-96
2022/04/30 08:53:16;;;;;;;10.80;4.40;;;13.70;62.00;;;;;;4992232;28;20663;-96
2022/04/30 08:55:44;;;;;;;8.97;4.60;;;13.80;61.90;;;;;;4989722;28;20219;-96
2022/04/30 08:58:16;;;;;;;9.23;4.80;;;13.90;61.80;;;;;;4991991;28;20208;-96
2022/04/30 09:00:47;;;;;;;11.47;5.40;;;13.90;61.20;;;;;;4995843;28;20243;-94
2022/04/30 09:06:38;;;;;;;11.30;5.17;;;14.00;61.00;;;;;;4913758;29;20211;-93
2022/04/30 09:09:32;;;;;;;7.67;4.13;;;14.00;61.10;;;;;;4930992;28;20221;-94
2022/04/30 09:12:07;;;;;;;9.13;4.50;;;14.00;60.80;;;;;;4981275;28;20229;-95
2022/04/30 09:14:40;;;;;;;9.23;4.50;;;14.10;61.60;;;;;;4993082;28;20209;-95
2022/04/30 09:17:09;;;;;;;12.03;5.70;;;14.10;61.80;;;;;;4990502;28;20243;-96
2022/04/30 09:19:47;;;;;;;12.87;5.20;;;14.20;61.80;;;;;;4991407;28;20629;-93
2022/04/30 09:22:16;;;;;;;9.33;4.47;;;14.20;61.30;;;;;;4986795;28;21008;-94
2022/04/30 09:24:49;;;;;;;12.17;5.60;;;14.30;61.50;;;;;;4981180;28;20213;-94
2022/04/30 09:27:16;;;;;;;14.47;5.73;;;14.40;60.40;;;;;;4989877;28;20635;-92
2022/04/30 09:29:53;;;;;;;14.27;5.63;;;14.50;60.40;;;;;;4991129;28;20225;-93
2022/04/30 09:32:22;;;;;;;9.97;4.70;;;14.70;59.50;;;;;;4992068;28;20248;-94
2022/04/30 09:37:42;;;;;;;9.03;4.33;;;14.80;59.10;;;;;;4973737;28;20223;-94
2022/04/30 09:40:24;;;;;;;10.27;4.57;;;14.90;58.70;;;;;;4986633;28;20211;-94
2022/04/30 09:42:52;;;;;;;10.23;4.90;;;15.00;58.40;;;;;;4986466;28;20248;-94
2022/04/30 09:45:29;;;;;;;9.77;4.50;;;15.10;59.10;;;;;;4991495;28;20209;-95
2022/04/30 09:47:59;;;;;;;9.73;4.17;;;15.20;59.00;;;;;;4990674;28;20297;-95
2022/04/30 09:56:34;;;;;;;7.77;4.50;;;15.40;57.70;;;;;;4991673;28;20366;-94
2022/04/30 09:59:06;;;;;;;8.40;4.60;;;15.50;57.50;;;;;;4992356;28;20203;-96
2022/04/30 10:01:35;;;;;;;9.27;4.10;;;15.60;57.90;;;;;;4994579;28;20268;-95
2022/04/30 10:04:08;;;;;;;11.27;5.43;;;15.70;58.20;;;;;;4995061;28;20237;-95
2022/04/30 10:06:37;;;;;;;5.73;4.13;;;15.80;58.70;;;;;;4995085;28;20237;-96
2022/04/30 10:09:16;;;;;;;8.10;4.70;;;16.00;58.40;;;;;;4999326;28;20620;-91
2022/04/30 10:11:54;;;;;;;6.23;3.47;;;16.20;57.40;;;;;;5000220;28;20223;-95
2022/04/30 10:14:35;;;;;;;4.57;3.33;;;16.40;57.00;;;;;;5000351;28;20223;-94
2022/04/30 10:17:16;;;;;;;7.40;4.03;;;16.60;55.80;;;;;;4999242;28;20227;-93
2022/04/30 10:19:45;;;;;;;9.50;4.17;;;16.70;56.50;;;;;;4989669;28;20814;-92
2022/04/30 10:22:26;;;;;;;7.97;4.20;;;16.90;55.40;;;;;;4997688;28;20235;-96
2022/04/30 10:25:10;;;;;;;11.03;4.77;;;17.00;55.40;;;;;;4983824;28;20204;-93
2022/04/30 10:27:47;;;;;;;7.90;4.53;;;17.10;54.00;;;;;;4958524;28;20217;-93
2022/04/30 10:33:35;;;;;;;7.77;4.33;;;17.50;54.70;;;;;;4992738;28;20213;-94
2022/04/30 10:36:06;;;;;;;8.23;4.60;;;17.60;54.30;;;;;;4997651;28;20214;-95
2022/04/30 10:38:36;;;;;;;9.43;5.27;;;17.80;54.40;;;;;;4984797;28;20270;-95
2022/04/30 10:41:10;;;;;;;6.90;4.80;;;18.00;54.70;;;;;;4980021;28;20261;-96
2022/04/30 10:43:54;;;;;;;7.43;4.13;;;18.10;53.10;;;;;;4982665;28;20250;-96
2022/04/30 10:50:25;;;;;;;8.77;4.80;;;18.30;52.70;;;;;;5043766;26;20231;-96
2022/04/30 10:52:55;;;;;;;6.37;4.37;;;18.40;52.60;;;;;;5040257;28;20196;-96
2022/04/30 10:55:33;;;;;;;9.17;4.20;;;18.40;52.60;;;;;;5043215;28;20285;-96
2022/04/30 10:58:03;;;;;;;6.83;4.00;;;18.50;52.70;;;;;;5037543;28;20277;-93
2022/04/30 11:03:30;;;;;;;8.03;4.23;;;18.50;53.00;;;;;;4977578;28;20328;-95
2022/04/30 11:09:29;;;;;;;6.33;3.53;;;18.60;52.30;;;;;;4997130;28;20253;-95
2022/04/30 11:12:07;;;;;;;5.47;3.80;;;18.70;53.00;;;;;;5029217;28;20209;-95
2022/04/30 11:14:36;;;;;;;11.97;4.93;;;18.80;52.80;;;;;;5035346;28;20204;-95
2022/04/30 11:17:04;;;;;;;6.50;4.13;;;18.90;52.80;;;;;;5054459;28;20645;-93
2022/04/30 11:19:31;;;;;;;7.47;3.97;;;18.90;53.00;;;;;;5061547;28;20258;-92
2022/04/30 11:22:02;;;;;;;7.27;4.27;;;19.00;52.90;;;;;;5058565;28;20192;-95
2022/04/30 11:24:37;;;;;;;6.53;3.73;;;19.00;52.40;;;;;;5063510;28;20230;-95
2022/04/30 11:27:08;;;;;;;10.10;4.03;;;19.00;52.10;;;;;;5060019;28;20218;-94
2022/04/30 11:29:49;;;;;;;8.63;4.47;;;19.00;52.30;;;;;;5051080;28;20205;-96
2022/04/30 11:32:24;;;;;;;8.27;4.40;;;19.00;52.60;;;;;;5037485;28;20658;-92
2022/04/30 11:34:54;;;;;;;6.07;3.47;;;18.90;51.80;;;;;;5037181;28;20212;-94
2022/04/30 11:37:52;;;;;;;;;;;;;;;;;;;;;
2022/04/30 11:40:23;;;;;;;6.40;4.03;;;18.90;51.30;;;;;;5046874;28;20200;-89
2022/04/30 11:42:56;;;;;;;7.00;3.47;;;18.90;52.00;;;;;;5045702;28;20340;-93
2022/04/30 11:45:31;;;;;;;9.70;4.77;;;18.90;51.60;;;;;;5035858;28;20213;-95
2022/04/30 11:48:03;;;;;;;8.43;4.23;;;18.90;51.80;;;;;;5022766;28;20209;-94
2022/04/30 11:50:42;;;;;;;7.07;4.53;;;18.80;51.80;;;;;;5018673;28;20225;-95
2022/04/30 11:53:11;;;;;;;8.70;4.17;;;18.80;51.80;;;;;;5017614;28;20234;-92
2022/04/30 11:55:40;;;;;;;5.40;3.00;;;18.90;51.70;;;;;;5018576;28;20276;-91
2022/04/30 11:58:09;;;;;;;6.00;3.07;;;18.90;51.40;;;;;;5018973;28;20209;-94
2022/04/30 12:00:39;;;;;;;10.60;5.27;;;18.90;51.30;;;;;;5028798;28;20208;-95
2022/04/30 12:03:06;;;;;;;8.70;4.43;;;19.00;51.30;;;;;;5031769;28;20227;-96
2022/04/30 12:05:51;;;;;;;8.13;4.33;;;19.00;51.30;;;;;;5032713;28;20223;-92
2022/04/30 12:08:27;;;;;;;5.73;3.90;;;19.10;50.80;;;;;;5034594;28;20227;-96
2022/04/30 12:10:57;;;;;;;11.83;5.17;;;19.10;50.90;;;;;;5017772;28;20549;-94
2022/04/30 12:13:25;;;;;;;7.03;3.70;;;19.10;50.40;;;;;;5014591;28;20717;-89
2022/04/30 12:16:05;;;;;;;8.43;3.13;;;19.10;50.90;;;;;;5024985;28;20197;-92
2022/04/30 12:27:02;;;;;;;8.17;4.40;;;19.40;50.00;;;;;;5031067;28;20243;-95
2022/04/30 12:29:30;;;;;;;10.33;5.13;;;19.40;48.60;;;;;;5030977;28;20228;-96
2022/04/30 12:31:59;;;;;;;5.93;3.50;;;19.40;49.50;;;;;;5012300;28;20213;-94
2022/04/30 12:34:38;;;;;;;7.97;4.43;;;19.40;48.90;;;;;;5013129;28;20646;-95
2022/04/30 12:37:08;;;;;;;5.93;3.53;;;19.40;48.20;;;;;;5014281;28;20209;-95
2022/04/30 12:39:41;;;;;;;7.73;3.93;;;19.40;49.10;;;;;;5012996;28;20292;-95
2022/04/30 12:42:13;;;;;;;5.67;3.37;;;19.40;49.00;;;;;;5014596;28;20197;-95
2022/04/30 12:44:41;;;;;;;12.83;5.67;;;19.40;49.40;;;;;;5016238;28;20568;-95
2022/04/30 12:47:09;;;;;;;8.40;4.33;;;19.50;48.70;;;;;;5035001;28;20201;-95
2022/04/30 12:49:39;;;;;;;7.23;4.10;;;19.50;49.30;;;;;;5034066;28;20200;-93
2022/04/30 12:58:41;;;;;;;7.60;3.77;;;19.70;48.70;;;;;;4988373;28;20213;-96
2022/04/30 13:01:17;;;;;;;10.00;4.63;;;19.70;48.00;;;;;;5011241;28;20233;-94
2022/04/30 13:03:53;;;;;;;7.93;3.77;;;19.70;48.30;;;;;;5009367;28;20599;-92
2022/04/30 13:06:23;;;;;;;6.07;3.27;;;19.70;47.30;;;;;;4993614;28;20226;-95
2022/04/30 13:14:49;;;;;;;21.10;7.77;;;19.90;47.60;;;;;;4993200;28;20194;-94
2022/04/30 13:20:23;;;;;;;7.47;3.77;;;20.00;47.60;;;;;;4995143;28;20265;-95
2022/04/30 13:22:59;;;;;;;8.40;3.73;;;20.10;47.80;;;;;;5007559;28;20211;-96
2022/04/30 13:25:27;;;;;;;10.07;4.30;;;20.10;47.10;;;;;;5016605;28;20737;-94
2022/04/30 13:27:57;;;;;;;7.90;3.70;;;20.10;47.40;;;;;;5010998;28;20233;-94
2022/04/30 13:30:33;;;;;;;10.33;4.00;;;20.10;45.70;;;;;;5015513;28;20198;-95
2022/04/30 13:33:32;;;;;;;6.60;3.47;;;20.10;46.60;;;;;;5010394;28;20208;-95
2022/04/30 13:36:11;;;;;;;9.47;3.57;;;20.10;46.80;;;;;;4987787;28;20202;-96
2022/04/30 13:38:49;;;;;;;9.70;4.23;;;20.00;46.70;;;;;;5014074;28;20301;-94
2022/04/30 13:41:16;;;;;;;5.93;2.70;;;20.00;46.20;;;;;;5017895;28;20194;-94
2022/04/30 13:43:47;;;;;;;8.43;3.97;;;20.00;46.40;;;;;;5014744;28;20235;-93
2022/04/30 13:46:16;;;;;;;7.30;3.17;;;20.10;46.70;;;;;;5018921;28;20213;-95
2022/04/30 13:48:50;;;;;;;8.10;3.77;;;20.10;46.40;;;;;;5022854;28;20260;-96
2022/04/30 13:51:24;;;;;;;5.77;3.13;;;20.20;46.40;;;;;;5017686;28;20229;-94
2022/04/30 13:53:56;;;;;;;7.70;3.70;;;20.30;46.90;;;;;;5023462;28;20210;-96
2022/04/30 13:56:26;;;;;;;6.33;3.07;;;20.30;46.40;;;;;;5003286;28;20245;-94
2022/04/30 13:58:54;;;;;;;7.83;3.20;;;20.40;46.40;;;;;;5019869;28;20198;-96
2022/04/30 14:01:24;;;;;;;7.10;3.50;;;20.40;46.30;;;;;;5004286;28;20207;-96
2022/04/30 14:03:57;;;;;;;6.10;2.77;;;20.30;45.60;;;;;;5016601;28;20233;-96
2022/04/30 14:06:35;;;;;;;8.60;3.47;;;20.40;45.70;;;;;;5016006;28;20222;-95
2022/04/30 14:09:26;;;;;;;6.97;3.60;;;20.40;45.70;;;;;;5003270;28;20216;-94
2022/04/30 14:12:20;;;;;;;8.53;3.90;;;20.50;45.50;;;;;;5008702;28;20206;-95
2022/04/30 14:14:58;;;;;;;10.33;4.77;;;20.50;45.30;;;;;;4973466;28;20213;-95
2022/04/30 14:23:18;;;;;;;5.87;3.17;;;20.60;45.90;;;;;;5016318;28;20319;-95
2022/04/30 14:25:45;;;;;;;6.93;3.40;;;20.60;45.70;;;;;;5017677;28;20256;-96
2022/04/30 14:28:12;;;;;;;6.93;3.50;;;20.60;46.00;;;;;;5014996;28;20205;-96
2022/04/30 14:30:48;;;;;;;8.83;4.17;;;20.70;45.60;;;;;;5007045;28;20301;-93
2022/04/30 14:33:32;;;;;;;4.37;2.97;;;20.70;45.80;;;;;;5015953;28;20213;-96
2022/04/30 14:36:06;;;;;;;9.63;4.30;;;20.80;45.70;;;;;;5015543;28;20208;-96
2022/04/30 14:38:40;;;;;;;3.77;2.50;;;20.90;45.60;;;;;;5015407;28;20238;-96
2022/04/30 14:41:13;;;;;;;6.80;3.53;;;21.00;44.90;;;;;;5014470;28;20755;-92
2022/04/30 14:43:40;;;;;;;6.63;3.20;;;21.10;44.60;;;;;;5015141;28;20636;-93
2022/04/30 14:46:07;;;;;;;6.37;3.60;;;21.10;45.30;;;;;;5019856;28;20202;-94
2022/04/30 14:48:41;;;;;;;6.47;3.40;;;21.20;44.80;;;;;;5028328;28;20407;-95
2022/04/30 14:51:29;;;;;;;7.27;3.43;;;21.10;44.40;;;;;;5022055;28;20282;-96
2022/04/30 14:54:01;;;;;;;7.70;3.67;;;21.10;43.50;;;;;;4998351;28;20205;-96
2022/04/30 14:56:32;;;;;;;11.23;3.77;;;21.10;43.80;;;;;;5011699;28;20206;-96
2022/04/30 14:59:00;;;;;;;5.97;2.87;;;21.00;43.70;;;;;;5008379;28;20221;-95
2022/04/30 15:01:30;;;;;;;8.37;3.77;;;20.90;44.20;;;;;;5002473;28;20402;-95
2022/04/30 15:06:35;;;;;;;5.23;2.97;;;20.60;43.70;;;;;;5266346;22;20723;-95